Flight Track Log - Related Links

Times and Time Zones

All times are in EDT time to prevent confusion due to time zone crossing. See the UAL527 flight status page for this flight to view local times or setup timezone preferences in your user account.

Time Position Orientation Groundspeed Altitude Reporting Facility
EDT Latitude Longitude Course Direction KTS MPH feet Rate Location/Type
Sat 10:27:14 PM 42.0192 -87.8178 84° East 254 292 5,000  Level Chicago Center
Sat 10:28:15 PM 42.0081 -87.7114 98° East 279 321 8,700 3,818 Climbing Chicago Center
Sat 10:29:00 PM 41.9346 -87.1661 96° East  Level FlightAware Approximate
Sat 10:29:15 PM 41.9961 -87.5761 97° East 299 344 12,700  Level Chicago Center
Sat 10:30:00 PM 41.9333 -87.0190 90° East  Level FlightAware Approximate
Sat 10:30:16 PM 41.9858 -87.4531 96° East 321 369 14,800  Level Chicago Center
Sat 10:31:00 PM 41.9334 -86.8718 90° East  Level FlightAware Approximate
Sat 10:31:17 PM 41.9697 -87.3053 98° East 381 438 17,000  Level Chicago Center
Sat 10:32:00 PM 41.9379 -86.7249 84° East  Level FlightAware Approximate
Sat 10:32:18 PM 41.9533 -87.1528 98° East 407 468 19,500  Level Chicago Center
Sat 10:33:18 PM 41.9447 -86.9936 94° East 422 486 21,700 2,033 Climbing Chicago Center
Sat 10:34:19 PM 41.9486 -86.8294 88° East 438 504 23,600 1,820 Climbing Chicago Center
Sat 10:35:20 PM 41.9506 -86.6500 89° East 455 524 25,400 1,785 Climbing Chicago Center
Sat 10:36:20 PM 41.9517 -86.4722 89° East 470 541 27,200 1,636 Climbing Chicago Center
Sat 10:37:21 PM 41.9539 -86.2917 89° East 480 552 28,700 1,475 Climbing Chicago Center
Sat 10:38:22 PM 41.9356 -86.1086 98° East 490 564 30,200 1,426 Climbing Chicago Center
Sat 10:39:23 PM 41.8992 -85.9300 105° East 495 570 31,600 1,537 Climbing Chicago Center
Sat 10:40:23 PM 41.8636 -85.7486 105° East 500 575 33,300 1,537 Climbing Chicago Center
Sat 10:41:24 PM 41.8289 -85.5692 105° East 496 571 34,700 1,623 Climbing Chicago Center
Sat 10:42:25 PM 41.7944 -85.3864 104° East 495 570 36,600 1,475 Climbing Chicago Center
Sat 10:43:26 PM 41.7569 -85.2056 105° East 494 568 37,700 992 Climbing Chicago Center
Sat 10:44:26 PM 41.7194 -85.0317 106° East 488 562 38,600 645 Climbing Chicago Center
Sat 10:45:27 PM 41.6822 -84.8553 106° East 491 565 39,000 197 Climbing Chicago Center
Sat 10:46:28 PM 41.6622 -84.6772 98° East 484 557 39,000  Level Chicago Center
Sat 10:47:19 PM 41.6564 -84.5300 93° East 482 555 39,000  Level Cleveland Center
Sat 10:48:20 PM 41.6139 -84.3633 109° East 482 555 39,000  Level Cleveland Center
Sat 10:49:19 PM 41.5425 -84.1900 119° Southeast 477 549 39,000  Level Cleveland Center
Sat 10:50:19 PM 41.4828 -84.0342 117° Southeast 477 549 39,000  Level Cleveland Center
Sat 10:51:20 PM 41.4206 -83.8758 118° Southeast 477 549 39,000  Level Cleveland Center
Sat 10:52:20 PM 41.3603 -83.7178 117° Southeast 477 549 39,000  Level Cleveland Center
Sat 10:53:19 PM 41.2978 -83.5600 118° Southeast 477 549 39,000  Level Cleveland Center
Sat 10:54:19 PM 41.2394 -83.4025 116° Southeast 477 549 39,000  Level Cleveland Center
Sat 10:55:19 PM 41.1764 -83.2425 118° Southeast 482 555 39,000  Level Cleveland Center
Sat 10:56:20 PM 41.1153 -83.0858 117° Southeast 482 555 39,000  Level Cleveland Center
Sat 10:57:19 PM 41.0542 -82.9264 117° Southeast 482 555 39,000  Level Cleveland Center
Sat 10:58:19 PM 40.9925 -82.7703 118° Southeast 482 555 39,000  Level Cleveland Center
Sat 10:59:19 PM 40.9308 -82.6142 118° Southeast 477 549 39,000  Level Cleveland Center
Sat 11:00:19 PM 40.8747 -82.4806 119° Southeast 478 550 39,000  Level Cleveland Center
Sat 11:00:47 PM 40.8478 -82.4050 115° Southeast 474 545 39,000  Level Indianapolis Center
Sat 11:01:48 PM 40.7858 -82.2494 118° Southeast 478 550 39,000  Level Indianapolis Center
Sat 11:02:48 PM 40.7222 -82.0953 119° Southeast 476 548 39,000  Level Indianapolis Center
Sat 11:03:19 PM 40.6878 -82.0153 120° Southeast 478 550 39,000  Level Cleveland Center
Sat 11:04:20 PM 40.6250 -81.8633 119° Southeast 478 550 39,000  Level Cleveland Center
Sat 11:04:49 PM 40.5967 -81.7861 116° Southeast 476 548 39,000  Level Indianapolis Center
Sat 11:05:50 PM 40.5331 -81.6306 118° Southeast 479 551 39,000  Level Indianapolis Center
Sat 11:06:19 PM 40.4986 -81.5522 120° Southeast 478 550 39,000  Level Cleveland Center
Sat 11:07:20 PM 40.4356 -81.3769 115° Southeast 484 557 39,000  Level Cleveland Center
Sat 11:08:19 PM 40.3844 -81.2100 112° Southeast 484 557 39,000  Level Cleveland Center
Sat 11:08:51 PM 40.3586 -81.1425 117° Southeast 495 570 39,000  Level Indianapolis Center
Sat 11:09:19 PM 40.3289 -81.0489 113° Southeast 484 557 39,000  Level Cleveland Center
Sat 11:10:20 PM 40.2753 -80.8825 113° Southeast 484 557 39,000  Level Cleveland Center
Sat 11:11:19 PM 40.2192 -80.7136 113° Southeast 484 557 39,000  Level Cleveland Center
Sat 11:12:19 PM 40.1650 -80.5531 114° Southeast 484 557 39,000  Level Cleveland Center
Sat 11:13:19 PM 40.1086 -80.3875 114° Southeast 484 557 39,000  Level Cleveland Center
Sat 11:14:19 PM 40.0519 -80.2225 114° Southeast 491 565 39,000 -1,165 Level Cleveland Center
Sat 11:16:45 PM 39.9242 -79.8419 114° Southeast 495 570 35,000 -1,615 Descending Washington Center
Sat 11:17:47 PM 39.8714 -79.6847 114° Southeast 485 558 33,400 -1,967 Descending Washington Center
Sat 11:18:47 PM 39.8181 -79.5331 115° Southeast 470 541 31,000 -2,644 Descending Washington Center
Sat 11:19:45 PM 39.7667 -79.3844 114° Southeast 465 535 28,200 -2,797 Descending Washington Center
Sat 11:20:45 PM 39.7128 -79.2333 115° Southeast 455 524 25,500 -2,118 Descending Washington Center
Sat 11:21:44 PM 39.6631 -79.0850 113° Southeast 455 524 24,000 -1,563 Descending Washington Center
Sat 11:22:44 PM 39.6222 -78.9106 107° East 448 516 22,400 -1,686 Descending Washington Center
Sat 11:23:45 PM 39.5889 -78.7556 106° East 448 516 20,600 -1,756 Descending Washington Center
Sat 11:24:47 PM 39.5572 -78.6089 106° East 435 501 18,800 -1,686 Descending Washington Center
Sat 11:25:46 PM 39.5272 -78.4678 105° East 421 484 17,200 -1,600 Descending Washington Center
Sat 11:26:47 PM 39.4931 -78.3264 107° East 415 478 15,600 -1,109 Descending Washington Center
Sat 11:27:45 PM 39.4628 -78.1908 106° East 403 464 15,000 -256 Descending Washington Center
Sat 11:28:44 PM 39.4322 -78.0528 106° East 403 464 15,100 -700 Climbing Washington Center
Sat 11:29:45 PM 39.4036 -77.9203 106° East 397 457 13,600 -1,537 Descending Washington Center
Sat 11:30:45 PM 39.3792 -77.7853 103° East 392 451 12,000 -1,438 Descending Washington Center
Sat 11:31:46 PM 39.3542 -77.6583 104° East 374 430 10,700 -1,227 Descending Washington Center
Sat 11:32:13 PM 39.3500 -77.6000 95° East 342 394 10,200 -1,034 Descending Potomac TRACON
Sat 11:33:13 PM 39.3333 -77.4833 100° East 311 358 9,200 -1,105 Descending Potomac TRACON
Sat 11:34:07 PM 39.3167 -77.3833 102° East 307 353 8,100 -1,100 Descending Potomac TRACON
Sat 11:35:13 PM 39.2833 -77.2833 113° Southeast 302 348 7,000 -571 Descending Potomac TRACON
Sat 11:36:13 PM 39.2667 -77.1667 100° East 302 348 6,900 -100 Descending Potomac TRACON
Sat 11:37:13 PM 39.2500 -77.0667 102° East 300 345 6,800 -579 Descending Potomac TRACON
Sat 11:38:07 PM 39.2333 -76.9667 102° East 293 337 5,800 -1,111 Descending Potomac TRACON
Sat 11:39:01 PM 39.2167 -76.8833 104° East 279 321 4,800 -1,158 Descending Potomac TRACON
Sat 11:40:01 PM 39.1833 -76.8000 117° Southeast 265 305 3,600 -1,050 Descending Potomac TRACON
Sat 11:41:01 PM 39.1333 -76.7333 134° Southeast 230 265 2,700 -900 Descending Potomac TRACON

Login

Don't have an account? Register now (free) for customized features, flight alerts, and more!